South Chaplin, Connecticut
Current Conditions -  °F | °C
As of 2:52 PM on Friday 31 Oct 2014 (Local Time) from KIJD Reporting Station
Overcast Overcast  
Wind Chill: 12°   Ceiling: 4000
Heat Index: 12°   Visibility: 10mi
Dew Point:   Wind: 7mph
Humidity: 55%   Direction: 40°NE
Pressure: 29.94"   Gusts: NA
Location:  41.7601°N, 72.123°W
Report Text: KIJD 311852Z AUTO 04006KT 10SM OVC040 12/03 A2994 RMK AO2 SLP141 T01220033
Loading
Personal Weather Stations






























Interactive Weather Map
Tropical Storm Tracking
New forecast layout! Learn more

10-Day Weather Forecast

Advertisements
Track Severe Weather on mobile